Time;durP1;ratioP1;P1;durP2;ratioP2;P2;SDS_P1;SDS_P2;PMS_P1;PMS_P2;Temp;Humidity;BMP_temperature;BMP_pressure;BME280_temperature;BME280_humidity;BME280_pressure;Samples;Min_cycle;Max_cycle;Signal;HPM_P1;HPM_P2
2021/05/20 00:00:04;;;;;;;;;;;11.20;99.90;;;;;;5077031;28;19904;-80
2021/05/20 00:02:30;;;;;;;;;;;11.10;99.90;;;;;;5077253;28;19958;-79
2021/05/20 00:04:55;;;;;;;;;;;11.20;99.90;;;;;;5076986;28;19911;-79
2021/05/20 00:07:21;;;;;;;;;;;11.20;99.90;;;;;;5077322;28;19904;-80
2021/05/20 00:09:46;;;;;;;;;;;11.10;99.90;;;;;;5077223;28;19911;-79
2021/05/20 00:12:12;;;;;;;;;;;11.10;99.90;;;;;;5077134;28;19904;-79
2021/05/20 00:14:38;;;;;;;;;;;11.10;99.90;;;;;;5077199;28;19986;-79
2021/05/20 00:17:04;;;;;;;;;;;11.10;99.90;;;;;;5077080;28;19910;-79
2021/05/20 00:19:29;;;;;;;;;;;11.10;99.90;;;;;;5076660;28;20361;-79
2021/05/20 00:21:54;;;;;;;;;;;11.10;99.90;;;;;;5076839;28;19900;-79
2021/05/20 00:24:20;;;;;;;;;;;11.00;99.90;;;;;;5076905;28;19952;-79
2021/05/20 00:26:45;;;;;;;;;;;10.90;99.90;;;;;;5076983;28;19904;-80
2021/05/20 00:29:11;;;;;;;;;;;11.00;99.90;;;;;;5076509;28;20424;-79
2021/05/20 00:31:36;;;;;;;;;;;11.00;99.90;;;;;;5076901;28;19966;-80
2021/05/20 00:34:02;;;;;;;;;;;10.90;99.90;;;;;;5076579;28;19904;-80
2021/05/20 00:36:27;;;;;;;;;;;10.90;99.90;;;;;;5076672;28;19965;-79
2021/05/20 00:38:53;;;;;;;;;;;10.90;99.90;;;;;;5076506;28;19950;-80
2021/05/20 00:41:20;;;;;;;;;;;10.90;99.90;;;;;;5076642;28;20401;-79
2021/05/20 00:43:45;;;;;;;;;;;10.90;99.90;;;;;;5076375;28;19904;-80
2021/05/20 00:46:12;;;;;;;;;;;10.90;99.90;;;;;;5076524;28;19904;-79
2021/05/20 00:48:38;;;;;;;;;;;10.90;99.90;;;;;;5076104;28;19949;-79
2021/05/20 00:51:03;;;;;;;;;;;10.90;99.90;;;;;;5076327;28;19908;-79
2021/05/20 00:53:28;;;;;;;;;;;10.80;99.90;;;;;;5076420;28;19961;-79
2021/05/20 00:55:54;;;;;;;;;;;10.80;99.90;;;;;;5094362;28;19904;-80
2021/05/20 00:58:20;;;;;;;;;;;10.80;99.90;;;;;;5076212;28;20369;-79
2021/05/20 01:00:46;;;;;;;;;;;10.80;99.90;;;;;;5075947;28;19913;-79
2021/05/20 01:03:11;;;;;;;;;;;10.70;99.90;;;;;;5075927;28;19904;-80
2021/05/20 01:05:37;;;;;;;;;;;10.70;99.90;;;;;;5076026;28;19991;-79
2021/05/20 01:08:02;;;;;;;;;;;10.70;99.90;;;;;;5076207;28;19946;-79
2021/05/20 01:10:28;;;;;;;;;;;10.70;99.90;;;;;;5075588;28;19911;-79
2021/05/20 01:12:53;;;;;;;;;;;10.70;99.90;;;;;;5075899;28;19908;-79
2021/05/20 01:15:26;;;;;;;;;;;10.60;99.90;;;;;;5094020;28;20267;-79
2021/05/20 01:17:52;;;;;;;;;;;10.70;99.90;;;;;;5076513;28;19911;-79
2021/05/20 01:20:20;;;;;;;;;;;10.70;99.90;;;;;;5093754;28;19951;-80
2021/05/20 01:22:46;;;;;;;;;;;10.60;99.90;;;;;;5075720;28;20445;-80
2021/05/20 01:25:12;;;;;;;;;;;10.60;99.90;;;;;;5075664;28;20006;-79
2021/05/20 01:27:39;;;;;;;;;;;10.60;99.90;;;;;;5075787;28;20321;-80
2021/05/20 01:30:04;;;;;;;;;;;10.60;99.90;;;;;;5074862;28;20317;-80
2021/05/20 01:32:30;;;;;;;;;;;10.60;99.90;;;;;;5075418;28;19968;-80
2021/05/20 01:34:56;;;;;;;;;;;10.50;99.90;;;;;;5075418;28;20020;-80
2021/05/20 01:37:21;;;;;;;;;;;10.50;99.90;;;;;;5075588;28;19997;-80
2021/05/20 01:39:46;;;;;;;;;;;10.50;99.90;;;;;;5075184;28;19911;-80
2021/05/20 01:42:12;;;;;;;;;;;10.50;99.90;;;;;;5093505;28;20271;-80
2021/05/20 01:44:37;;;;;;;;;;;10.50;99.90;;;;;;5075319;28;19934;-80
2021/05/20 01:47:05;;;;;;;;;;;10.50;99.90;;;;;;5075291;28;19904;-80
2021/05/20 01:49:30;;;;;;;;;;;10.40;99.90;;;;;;5075030;28;19915;-80
2021/05/20 01:51:55;;;;;;;;;;;10.50;99.90;;;;;;5075405;28;19904;-79
2021/05/20 01:54:21;;;;;;;;;;;10.50;99.90;;;;;;5075212;28;19904;-80
2021/05/20 01:56:46;;;;;;;;;;;10.50;99.90;;;;;;5075212;28;19911;-80
2021/05/20 01:59:12;;;;;;;;;;;10.40;99.90;;;;;;5074959;28;19904;-80
2021/05/20 02:01:37;;;;;;;;;;;10.40;99.90;;;;;;5075081;28;20355;-80
2021/05/20 02:04:03;;;;;;;;;;;10.40;99.90;;;;;;5075073;28;19908;-80
2021/05/20 02:06:28;;;;;;;;;;;10.40;99.90;;;;;;5075193;28;19903;-79
2021/05/20 02:08:54;;;;;;;;;;;10.40;99.90;;;;;;5074650;28;19942;-80
2021/05/20 02:11:19;;;;;;;;;;;10.40;99.90;;;;;;5074923;28;20382;-80
2021/05/20 02:13:45;;;;;;;;;;;10.40;99.90;;;;;;5075165;28;19903;-80
2021/05/20 02:16:10;;;;;;;;;;;10.40;99.90;;;;;;5074891;28;20358;-80
2021/05/20 02:18:36;;;;;;;;;;;10.40;99.90;;;;;;5074800;28;20018;-80
2021/05/20 02:21:01;;;;;;;;;;;10.30;99.90;;;;;;5074871;28;19904;-79
2021/05/20 02:23:27;;;;;;;;;;;10.40;99.90;;;;;;5074734;28;19911;-80
2021/05/20 02:25:52;;;;;;;;;;;10.30;99.90;;;;;;5074682;28;19912;-80
2021/05/20 02:28:18;;;;;;;;;;;10.20;99.90;;;;;;5074833;28;19914;-80
2021/05/20 02:30:44;;;;;;;;;;;10.30;99.90;;;;;;5074588;28;19999;-79
2021/05/20 02:33:09;;;;;;;;;;;10.20;99.90;;;;;;5093064;28;20159;-79
2021/05/20 02:35:35;;;;;;;;;;;10.30;99.90;;;;;;5074671;28;19919;-79
2021/05/20 02:38:00;;;;;;;;;;;10.40;99.90;;;;;;5074804;28;20282;-80
2021/05/20 02:40:26;;;;;;;;;;;10.40;99.90;;;;;;5074504;28;19951;-80
2021/05/20 02:42:52;;;;;;;;;;;10.30;99.90;;;;;;5076358;28;19919;-80
2021/05/20 02:45:19;;;;;;;;;;;10.30;99.90;;;;;;5078778;28;19915;-80
2021/05/20 02:47:45;;;;;;;;;;;10.40;99.90;;;;;;5078682;28;20313;-80
2021/05/20 02:50:11;;;;;;;;;;;10.40;99.90;;;;;;5096441;28;19915;-79
2021/05/20 02:52:36;;;;;;;;;;;10.40;99.90;;;;;;5078730;28;19904;-79
2021/05/20 02:55:03;;;;;;;;;;;10.30;99.90;;;;;;5078479;28;19904;-80
2021/05/20 02:57:29;;;;;;;;;;;10.30;99.90;;;;;;5078509;28;19904;-80
2021/05/20 02:59:56;;;;;;;;;;;10.30;99.90;;;;;;5078053;28;20382;-80
2021/05/20 03:02:21;;;;;;;;;;;10.30;99.90;;;;;;5078336;28;19998;-79
2021/05/20 03:04:47;;;;;;;;;;;10.20;99.90;;;;;;5078395;28;19908;-80
2021/05/20 03:07:12;;;;;;;;;;;10.10;99.90;;;;;;5078542;28;19904;-80
2021/05/20 03:09:38;;;;;;;;;;;10.20;99.90;;;;;;5078034;28;20362;-79
2021/05/20 03:12:04;;;;;;;;;;;10.20;99.90;;;;;;5078456;28;19904;-80
2021/05/20 03:14:29;;;;;;;;;;;10.20;99.90;;;;;;5078208;28;20057;-80
2021/05/20 03:16:55;;;;;;;;;;;10.20;99.90;;;;;;5078116;28;20381;-80
2021/05/20 03:19:20;;;;;;;;;;;10.10;99.90;;;;;;5096039;28;19904;-80
2021/05/20 03:21:46;;;;;;;;;;;10.10;99.90;;;;;;5078226;28;19905;-79
2021/05/20 03:24:12;;;;;;;;;;;10.20;99.90;;;;;;5077931;28;20030;-80
2021/05/20 03:26:37;;;;;;;;;;;10.10;99.90;;;;;;5095981;28;19911;-80
2021/05/20 03:29:03;;;;;;;;;;;10.00;99.90;;;;;;5077969;28;19905;-80
2021/05/20 03:31:29;;;;;;;;;;;10.10;99.90;;;;;;5077813;28;20278;-80
2021/05/20 03:33:54;;;;;;;;;;;10.10;99.90;;;;;;5077907;28;19904;-79
2021/05/20 03:36:20;;;;;;;;;;;10.10;99.90;;;;;;5076762;28;20385;-80
2021/05/20 03:38:45;;;;;;;;;;;10.20;99.90;;;;;;5076423;28;19904;-80
2021/05/20 03:41:11;;;;;;;;;;;10.20;99.90;;;;;;5076670;28;20320;-79
2021/05/20 03:43:36;;;;;;;;;;;10.20;99.90;;;;;;5076478;28;19904;-80
2021/05/20 03:46:02;;;;;;;;;;;10.20;99.90;;;;;;5076490;28;20420;-80
2021/05/20 03:48:29;;;;;;;;;;;10.20;99.90;;;;;;5081506;28;19927;-81
2021/05/20 03:50:55;;;;;;;;;;;10.20;99.90;;;;;;5091492;28;19914;-82
2021/05/20 03:53:20;;;;;;;;;;;10.20;99.90;;;;;;5090368;28;19999;-81
2021/05/20 03:55:48;;;;;;;;;;;10.20;99.90;;;;;;5089515;28;20406;-81
2021/05/20 03:58:14;;;;;;;;;;;10.20;99.90;;;;;;5090643;28;19904;-81
2021/05/20 04:00:39;;;;;;;;;;;10.20;99.90;;;;;;5090059;28;20339;-80
2021/05/20 04:03:05;;;;;;;;;;;10.20;99.90;;;;;;5090579;28;19904;-81
2021/05/20 04:05:30;;;;;;;;;;;10.20;99.90;;;;;;5088398;28;19935;-81
2021/05/20 04:07:56;;;;;;;;;;;10.20;99.90;;;;;;5088929;28;19904;-81
2021/05/20 04:10:21;;;;;;;;;;;10.20;99.90;;;;;;5089709;28;20053;-81
2021/05/20 04:12:47;;;;;;;;;;;10.20;99.90;;;;;;5088985;28;19926;-80
2021/05/20 04:15:12;;;;;;;;;;;10.20;99.90;;;;;;5089580;28;19904;-81
2021/05/20 04:17:38;;;;;;;;;;;10.20;99.90;;;;;;5090125;28;19904;-81
2021/05/20 04:20:04;;;;;;;;;;;10.20;99.90;;;;;;5089663;28;19911;-81
2021/05/20 04:22:29;;;;;;;;;;;10.20;99.90;;;;;;5089037;28;19904;-81
2021/05/20 04:24:55;;;;;;;;;;;10.30;99.90;;;;;;5107412;28;19907;-81
2021/05/20 04:27:20;;;;;;;;;;;10.30;99.90;;;;;;5087390;28;19939;-81
2021/05/20 04:29:46;;;;;;;;;;;10.40;99.90;;;;;;5087315;28;19908;-81
2021/05/20 04:32:11;;;;;;;;;;;10.30;99.90;;;;;;5106319;28;20374;-81
2021/05/20 04:34:37;;;;;;;;;;;10.40;99.90;;;;;;5064178;28;693468;-81
2021/05/20 04:37:07;;;;;;;;;;;10.40;99.90;;;;;;5105495;28;20075;-81
2021/05/20 04:39:32;;;;;;;;;;;10.50;99.90;;;;;;5087886;28;20367;-81
2021/05/20 04:41:58;;;;;;;;;;;10.50;99.90;;;;;;5085938;28;19911;-81
2021/05/20 04:44:23;;;;;;;;;;;10.50;99.90;;;;;;5089384;28;20421;-80
2021/05/20 04:46:49;;;;;;;;;;;10.60;99.90;;;;;;5087156;28;19904;-81
2021/05/20 04:49:14;;;;;;;;;;;10.70;99.90;;;;;;5086355;28;19915;-81
2021/05/20 04:51:40;;;;;;;;;;;10.70;99.90;;;;;;5087188;28;20427;-81
2021/05/20 04:54:05;;;;;;;;;;;10.70;99.90;;;;;;5087469;28;19911;-80
2021/05/20 04:56:31;;;;;;;;;;;10.90;99.90;;;;;;5104279;28;19904;-81
2021/05/20 04:58:56;;;;;;;;;;;10.90;99.90;;;;;;5086890;28;19904;-81
2021/05/20 05:01:22;;;;;;;;;;;10.90;99.90;;;;;;5087182;28;20370;-81
2021/05/20 05:03:47;;;;;;;;;;;10.90;99.90;;;;;;5085241;28;19904;-81
2021/05/20 05:06:13;;;;;;;;;;;11.00;99.90;;;;;;5084581;28;19911;-81
2021/05/20 05:08:38;;;;;;;;;;;11.00;99.90;;;;;;5103158;28;19939;-81
2021/05/20 05:11:04;;;;;;;;;;;11.00;99.90;;;;;;5085716;28;19904;-81
2021/05/20 05:13:29;;;;;;;;;;;11.00;99.90;;;;;;5085601;28;19903;-82
2021/05/20 05:15:56;;;;;;;;;;;11.10;99.90;;;;;;5084500;28;19954;-81
2021/05/20 05:18:22;;;;;;;;;;;11.10;99.90;;;;;;5087367;28;19904;-81
2021/05/20 05:20:47;;;;;;;;;;;11.30;99.90;;;;;;5087658;28;19942;-80
2021/05/20 05:23:12;;;;;;;;;;;11.40;99.90;;;;;;5087193;28;19967;-80
2021/05/20 05:25:38;;;;;;;;;;;11.40;99.90;;;;;;5085884;28;19908;-81
2021/05/20 05:28:03;;;;;;;;;;;11.40;99.90;;;;;;5085064;28;19932;-81
2021/05/20 05:30:29;;;;;;;;;;;11.50;99.90;;;;;;5084538;28;20356;-80
2021/05/20 05:32:54;;;;;;;;;;;11.60;99.90;;;;;;5075185;28;19942;-79
2021/05/20 05:35:20;;;;;;;;;;;11.70;99.90;;;;;;5074496;28;19932;-80
2021/05/20 05:37:45;;;;;;;;;;;11.70;99.90;;;;;;5074638;28;20334;-80
2021/05/20 05:40:11;;;;;;;;;;;11.70;99.90;;;;;;5074385;28;19904;-80
2021/05/20 05:42:36;;;;;;;;;;;11.70;99.90;;;;;;5075277;28;19987;-80
2021/05/20 05:45:02;;;;;;;;;;;11.70;99.90;;;;;;5075114;28;20350;-80
2021/05/20 05:47:28;;;;;;;;;;;11.80;99.90;;;;;;5074239;28;19911;-80
2021/05/20 05:49:53;;;;;;;;;;;11.90;99.90;;;;;;5074372;28;19912;-79
2021/05/20 05:52:21;;;;;;;;;;;11.90;99.90;;;;;;5074336;28;20381;-79
2021/05/20 05:54:47;;;;;;;;;;;12.00;99.90;;;;;;5075413;28;19950;-80
2021/05/20 05:57:12;;;;;;;;;;;12.30;99.90;;;;;;5093156;28;20000;-79
2021/05/20 05:59:38;;;;;;;;;;;12.30;99.90;;;;;;5074036;28;20410;-79
2021/05/20 06:02:03;;;;;;;;;;;12.20;99.90;;;;;;5075642;28;19904;-80
2021/05/20 06:04:30;;;;;;;;;;;12.10;99.90;;;;;;5074654;28;19953;-80
2021/05/20 06:06:56;;;;;;;;;;;12.20;99.90;;;;;;5075350;28;20006;-80
2021/05/20 06:09:24;;;;;;;;;;;12.60;99.90;;;;;;5083351;28;20366;-80
2021/05/20 06:11:49;;;;;;;;;;;13.00;99.90;;;;;;5094650;28;19998;-80
2021/05/20 06:14:15;;;;;;;;;;;13.70;99.90;;;;;;5078420;28;20401;-79
2021/05/20 06:16:41;;;;;;;;;;;14.30;99.90;;;;;;5076846;28;19912;-81
2021/05/20 06:19:07;;;;;;;;;;;14.60;99.90;;;;;;5078451;28;19914;-80
2021/05/20 06:21:33;;;;;;;;;;;15.60;99.90;;;;;;5108904;28;20356;-81
2021/05/20 06:23:58;;;;;;;;;;;16.70;99.90;;;;;;5095942;28;19957;-81
2021/05/20 06:26:25;;;;;;;;;;;16.40;99.90;;;;;;5087837;28;19908;-81
2021/05/20 06:28:50;;;;;;;;;;;16.30;99.90;;;;;;5087772;28;19908;-81
2021/05/20 06:31:15;;;;;;;;;;;16.10;99.90;;;;;;5084318;28;20031;-81
2021/05/20 06:33:41;;;;;;;2.75;2.25;;;16.70;99.90;;;;;;5109053;28;19903;-81
2021/05/20 06:36:07;;;;;;;2.33;2.08;;;17.10;99.90;;;;;;5096440;28;20446;-81
2021/05/20 06:38:33;;;;;;;2.63;1.98;;;17.40;99.90;;;;;;5083310;28;20028;-82
2021/05/20 06:41:01;;;;;;;2.30;2.10;;;16.90;99.90;;;;;;5075435;28;20111;-81
2021/05/20 06:43:26;;;;;;;6.10;2.25;;;16.40;99.90;;;;;;5075664;28;20023;-81
2021/05/20 06:45:52;;;;;;;2.80;2.10;;;16.80;99.90;;;;;;5075564;28;20166;-82
2021/05/20 06:48:17;;;;;;;;;;;17.40;99.90;;;;;;5092050;28;19904;-82
2021/05/20 06:50:43;;;;;;;;;;;17.90;99.90;;;;;;5094106;28;20369;-81
2021/05/20 06:53:09;;;;;;;;;;;18.80;99.90;;;;;;5076485;28;19904;-81
2021/05/20 06:55:34;;;;;;;;;;;20.00;99.90;;;;;;5076663;28;19927;-83
2021/05/20 07:00:31;;;;;;;1.52;1.42;;;21.30;99.90;;;;;;5096577;28;20052;-82
2021/05/20 07:02:56;;;;;;;1.38;1.20;;;23.10;99.90;;;;;;5093908;28;20150;-82
2021/05/20 07:05:22;;;;;;;1.83;1.40;;;23.90;98.00;;;;;;5077161;28;20031;-81
2021/05/20 07:07:48;;;;;;;2.47;1.70;;;24.40;93.90;;;;;;5095525;28;20368;-82
2021/05/20 07:10:14;;;;;;;1.67;1.20;;;25.90;92.10;;;;;;5078553;28;20031;-83
2021/05/20 07:12:39;;;;;;;;;;;27.50;87.10;;;;;;5078931;28;20532;-82
2021/05/20 07:15:05;;;;;;;;;;;28.70;74.40;;;;;;5079931;28;19934;-84
2021/05/20 07:17:30;;;;;;;;;;;29.70;67.10;;;;;;5079379;28;19908;-82
2021/05/20 07:19:56;;;;;;;;;;;30.00;65.00;;;;;;5077737;28;19904;-81
2021/05/20 07:22:21;;;;;;;;;;;29.40;64.50;;;;;;5078760;28;19926;-81
2021/05/20 07:24:47;;;;;;;;;;;27.10;67.40;;;;;;5077871;28;19962;-82
2021/05/20 07:27:12;;;;;;;;;;;25.10;71.70;;;;;;5095377;28;19974;-85
2021/05/20 07:29:38;;;;;;;;;;;23.90;75.40;;;;;;5097090;28;19994;-79
2021/05/20 07:32:04;;;;;;;;;;;22.60;77.20;;;;;;5080556;28;19904;-80
2021/05/20 07:34:32;;;;;;;;;;;20.60;90.20;;;;;;5098939;28;19908;-80
2021/05/20 07:36:58;;;;;;;;;;;19.80;96.10;;;;;;5080876;28;20278;-79
2021/05/20 07:39:23;;;;;;;;;;;20.50;99.90;;;;;;5080557;28;19939;-80
2021/05/20 07:41:49;;;;;;;;;;;21.00;95.70;;;;;;5080842;28;19946;-82
2021/05/20 07:44:14;;;;;;;;;;;20.80;96.70;;;;;;5080836;28;19912;-82
2021/05/20 07:46:40;;;;;;;;;;;20.10;99.20;;;;;;5079402;28;19908;-80
2021/05/20 07:49:05;;;;;;;;;;;19.30;99.90;;;;;;5079160;28;19968;-80
2021/05/20 07:51:31;;;;;;;;;;;18.50;99.90;;;;;;5078819;28;19911;-81
2021/05/20 07:53:56;;;;;;;;;;;17.60;99.90;;;;;;5078876;28;19904;-81
2021/05/20 07:56:22;;;;;;;;;;;16.90;99.90;;;;;;5078998;28;19946;-82
2021/05/20 07:58:52;;;;;;;;;;;16.70;99.90;;;;;;5078837;28;19911;-81
2021/05/20 08:01:19;;;;;;;;;;;16.50;99.90;;;;;;5079453;28;19904;-82
2021/05/20 08:03:48;;;;;;;;;;;16.20;99.90;;;;;;5078988;28;19904;-80
2021/05/20 08:06:28;;;;;;;;;;;16.30;99.90;;;;;;5078925;28;20398;-82
2021/05/20 08:11:18;;;;;;;;;;;16.00;99.90;;;;;;5097529;28;20330;-80
2021/05/20 08:13:44;;;;;;;;;;;15.90;99.90;;;;;;5078810;28;19904;-81
2021/05/20 08:16:10;;;;;;;;;;;15.90;99.90;;;;;;5112290;28;19969;-82
2021/05/20 08:18:35;;;;;;;;;;;16.10;99.90;;;;;;5097499;28;19904;-80
2021/05/20 08:21:01;;;;;;;;;;;16.30;99.90;;;;;;5097621;28;19904;-81
2021/05/20 08:23:27;;;;;;;;;;;16.50;99.90;;;;;;5098147;28;19994;-80
2021/05/20 08:25:52;;;;;;;;;;;16.70;99.90;;;;;;5099074;28;19999;-80
2021/05/20 08:28:18;;;;;;;;;;;17.00;99.90;;;;;;5098551;28;19908;-80
2021/05/20 08:30:43;;;;;;;;;;;17.30;99.90;;;;;;5098307;28;19994;-79
2021/05/20 08:33:09;;;;;;;;;;;17.90;99.90;;;;;;5097848;28;19915;-81
2021/05/20 08:35:35;;;;;;;;;;;19.10;99.90;;;;;;5101309;28;19961;-83
2021/05/20 08:38:01;;;;;;;;;;;19.20;99.90;;;;;;5100861;28;19950;-82
2021/05/20 08:40:27;;;;;;;;;;;19.30;99.90;;;;;;5098790;28;20037;-83
2021/05/20 08:42:53;;;;;;;;;;;18.80;99.90;;;;;;5100211;28;19946;-80
2021/05/20 08:45:19;;;;;;;;;;;18.70;99.90;;;;;;5100819;28;19908;-81
2021/05/20 08:47:46;;;;;;;;;;;18.70;99.90;;;;;;5099714;28;19963;-83
2021/05/20 08:50:12;;;;;;;;;;;19.00;99.90;;;;;;5100068;28;19931;-81
2021/05/20 08:52:38;;;;;;;;;;;19.10;99.90;;;;;;5100756;28;20480;-81
2021/05/20 08:55:05;;;;;;;;;;;18.80;99.90;;;;;;5097585;28;19904;-81
2021/05/20 08:57:31;;;;;;;;;;;18.90;99.90;;;;;;5099001;28;19915;-81
2021/05/20 08:59:56;;;;;;;;;;;18.80;99.90;;;;;;5097917;28;19903;-82
2021/05/20 09:02:23;;;;;;;;;;;18.90;99.90;;;;;;5092624;28;19912;-80
2021/05/20 09:04:57;;;;;;;;;;;19.40;99.90;;;;;;5110712;28;19915;-79
2021/05/20 09:07:31;;;;;;;;;;;19.70;99.90;;;;;;5107398;28;19943;-82
2021/05/20 09:10:06;;;;;;;;;;;19.60;99.90;;;;;;5117084;28;19910;-82
2021/05/20 09:12:32;;;;;;;;;;;19.70;99.90;;;;;;5118512;28;19904;-80
2021/05/20 09:14:57;;;;;;;;;;;20.40;99.90;;;;;;5108231;28;20480;-82
2021/05/20 09:17:23;;;;;;;1.40;1.20;;;20.80;99.90;;;;;;5087473;28;19907;-82
2021/05/20 09:19:51;;;;;;;;;;;21.60;99.90;;;;;;5099131;28;20035;-83
2021/05/20 09:22:17;;;;;;;;;;;23.90;95.40;;;;;;5100435;28;20355;-81
2021/05/20 09:24:54;;;;;;;1.85;1.60;;;24.20;92.60;;;;;;5091709;28;19914;-79
2021/05/20 09:27:35;;;;;;;2.15;1.05;;;22.80;93.20;;;;;;5109123;28;20114;-82
2021/05/20 09:30:20;;;;;;;1.50;1.27;;;22.20;95.00;;;;;;5100151;28;20027;-83
2021/05/20 09:32:56;;;;;;;0.60;0.60;;;23.10;92.90;;;;;;5119726;28;20016;-83
2021/05/20 09:35:23;;;;;;;;;;;22.30;92.70;;;;;;5100475;28;20394;-82
2021/05/20 09:37:51;;;;;;;1.10;1.02;;;21.70;95.10;;;;;;5112763;28;19922;-81
2021/05/20 09:40:18;;;;;;;;;;;22.70;95.80;;;;;;5099814;28;20068;-80
2021/05/20 09:42:46;;;;;;;;;;;22.80;95.50;;;;;;5094450;28;19908;-81
2021/05/20 09:45:12;;;;;;;;;;;22.30;93.30;;;;;;5091851;28;19911;-82
2021/05/20 09:47:38;;;;;;;1.05;0.77;;;21.70;93.10;;;;;;5096933;28;20362;-81
2021/05/20 09:50:09;;;;;;;0.82;0.73;;;21.40;94.00;;;;;;5098053;28;20036;-80
2021/05/20 09:52:35;;;;;;;1.17;1.08;;;21.70;95.60;;;;;;5085960;28;20024;-81
2021/05/20 09:55:00;;;;;;;;;;;21.50;95.30;;;;;;5076857;28;20127;-80
2021/05/20 09:57:30;;;;;;;;;;;20.90;95.70;;;;;;5078509;28;19979;-82
2021/05/20 10:00:00;;;;;;;1.23;0.93;;;21.10;97.10;;;;;;5077430;28;19904;-81
2021/05/20 10:02:26;;;;;;;1.40;0.73;;;20.80;95.10;;;;;;5077541;28;20055;-80
2021/05/20 10:04:53;;;;;;;;;;;21.10;97.40;;;;;;5095244;28;20072;-83
2021/05/20 10:07:26;;;;;;;;;;;21.70;99.50;;;;;;5076911;28;19904;-82
2021/05/20 10:09:51;;;;;;;;;;;22.70;96.20;;;;;;5085473;28;19912;-80
2021/05/20 10:12:17;;;;;;;;;;;23.40;96.00;;;;;;5091863;28;20377;-81
2021/05/20 10:14:42;;;;;;;;;;;24.30;92.10;;;;;;5086659;28;20402;-79
2021/05/20 10:17:08;;;;;;;;;;;24.30;92.00;;;;;;5086722;28;20367;-82
2021/05/20 10:19:34;;;;;;;0.60;0.60;;;24.30;85.80;;;;;;5087597;28;19908;-84
2021/05/20 10:22:01;;;;;;;0.75;0.43;;;24.20;91.20;;;;;;5106791;28;20008;-81
2021/05/20 10:24:29;;;;;;;;;;;23.60;87.50;;;;;;5085493;28;20396;-79
2021/05/20 10:26:55;;;;;;;0.60;0.60;;;22.80;90.30;;;;;;5087236;28;19951;-83
2021/05/20 10:29:20;;;;;;;;;;;22.20;91.80;;;;;;5086331;28;20082;-80
2021/05/20 10:31:46;;;;;;;;;;;22.80;93.50;;;;;;5103060;28;20282;-78
2021/05/20 10:34:15;;;;;;;;;;;23.80;88.80;;;;;;5086715;28;19908;-82
2021/05/20 10:36:54;;;;;;;;;;;23.90;88.30;;;;;;5087949;28;19951;-80
2021/05/20 10:39:21;;;;;;;;;;;23.20;92.10;;;;;;5085174;28;19953;-82
2021/05/20 10:41:46;;;;;;;;;;;22.30;90.00;;;;;;5083716;28;19904;-80
2021/05/20 10:44:12;;;;;;;;;;;21.50;92.40;;;;;;5088915;28;20397;-81
2021/05/20 10:46:56;;;;;;;;;;;21.20;94.40;;;;;;5083551;28;19907;-80
2021/05/20 10:49:41;;;;;;;;;;;21.00;94.40;;;;;;5095626;28;19903;-82
2021/05/20 10:52:27;;;;;;;;;;;21.00;92.50;;;;;;5096269;28;19903;-82
2021/05/20 10:55:00;;;;;;;;;;;23.00;92.40;;;;;;5095923;28;19950;-79
2021/05/20 10:57:58;;;;;;;;;;;26.00;82.90;;;;;;5098121;28;20010;-81
2021/05/20 11:00:37;;;;;;;;;;;27.70;66.30;;;;;;5041758;28;19911;-81
2021/05/20 11:03:03;;;;;;;;;;;28.50;67.10;;;;;;5096548;28;19904;-82
2021/05/20 11:05:41;;;;;;;;;;;27.80;59.30;;;;;;5099824;28;20373;-81
2021/05/20 11:08:25;;;;;;;;;;;26.00;64.90;;;;;;5100541;28;19911;-81
2021/05/20 11:10:50;;;;;;;;;;;24.60;65.60;;;;;;5099425;28;19911;-81
2021/05/20 11:13:34;;;;;;;;;;;23.30;74.10;;;;;;5098723;28;19904;-82
2021/05/20 11:16:13;;;;;;;;;;;22.60;81.00;;;;;;5099770;28;19951;-82
2021/05/20 11:18:39;;;;;;;;;;;21.70;80.80;;;;;;5099519;28;19912;-81
2021/05/20 11:21:04;;;;;;;;;;;20.40;85.00;;;;;;5099446;28;19908;-80
2021/05/20 11:23:30;;;;;;;;;;;19.80;91.50;;;;;;5099967;28;19903;-82
2021/05/20 11:26:00;;;;;;;;;;;19.10;94.80;;;;;;5098949;28;19947;-81
2021/05/20 11:28:26;;;;;;;;;;;18.50;98.50;;;;;;5098848;28;19904;-81
2021/05/20 11:30:55;;;;;;;;;;;18.00;99.90;;;;;;5098693;28;19930;-81
2021/05/20 11:33:22;;;;;;;;;;;18.20;99.90;;;;;;5098648;28;19915;-81
2021/05/20 11:36:11;;;;;;;;;;;18.30;99.90;;;;;;5097981;28;19957;-82
2021/05/20 11:38:36;;;;;;;;;;;18.50;99.90;;;;;;5098180;28;19957;-81
2021/05/20 11:41:16;;;;;;;;;;;19.00;99.90;;;;;;5099058;28;20316;-82
2021/05/20 11:43:42;;;;;;;;;;;18.60;99.90;;;;;;5080630;28;19955;-81
2021/05/20 11:46:18;;;;;;;;;;;18.50;99.90;;;;;;5080249;28;19911;-81
2021/05/20 11:49:03;;;;;;;;;;;19.10;99.90;;;;;;5077985;28;19910;-81
2021/05/20 11:51:38;;;;;;;;;;;19.00;99.90;;;;;;5078697;28;20374;-81
2021/05/20 11:54:10;;;;;;;;;;;19.10;99.90;;;;;;5078166;28;19910;-81
2021/05/20 11:56:36;;;;;;;;;;;19.20;99.90;;;;;;5077954;28;19910;-78
2021/05/20 11:59:02;;;;;;;;;;;19.20;99.90;;;;;;5077366;28;19904;-80
2021/05/20 12:01:27;;;;;;;;;;;19.20;99.90;;;;;;5077630;28;19911;-79
2021/05/20 12:04:03;;;;;;;;;;;19.20;99.90;;;;;;5096046;28;19908;-81
2021/05/20 12:06:29;;;;;;;;;;;19.50;99.90;;;;;;5083556;28;20313;-82
2021/05/20 12:09:24;;;;;;;;;;;19.40;99.90;;;;;;5104354;28;19904;-80
2021/05/20 12:11:49;;;;;;;;;;;19.70;99.40;;;;;;5079112;28;19954;-82
2021/05/20 12:14:29;;;;;;;;;;;20.00;99.90;;;;;;5077253;28;19908;-81
2021/05/20 12:16:57;;;;;;;;;;;19.70;97.00;;;;;;5078080;28;19949;-80
2021/05/20 12:19:30;;;;;;;;;;;19.20;97.10;;;;;;5077174;28;19912;-81
2021/05/20 12:21:59;;;;;;;;;;;18.90;96.90;;;;;;5077338;28;19904;-82
2021/05/20 12:24:29;;;;;;;;;;;18.90;96.40;;;;;;5076925;28;20079;-82
2021/05/20 12:26:54;;;;;;;;;;;19.30;97.60;;;;;;5077102;28;19904;-83
2021/05/20 12:29:20;;;;;;;;;;;20.20;98.40;;;;;;5077173;28;19911;-82
2021/05/20 12:31:45;;;;;;;;;;;20.80;94.50;;;;;;5077152;28;19986;-82
2021/05/20 12:34:15;;;;;;;;;;;20.60;95.80;;;;;;5076898;28;19904;-83
2021/05/20 12:36:40;;;;;;;;;;;20.20;93.90;;;;;;5077260;28;19911;-81
2021/05/20 12:39:11;;;;;;;;;;;20.40;97.80;;;;;;5077293;28;19904;-81
2021/05/20 12:41:37;;;;;;;;;;;20.70;98.30;;;;;;5094912;28;19904;-81
2021/05/20 12:44:12;;;;;;;;;;;20.80;98.80;;;;;;5077049;28;19911;-82
2021/05/20 12:46:38;;;;;;;;;;;20.80;97.30;;;;;;5086632;28;19907;-82
2021/05/20 12:49:03;;;;;;;;;;;20.80;99.40;;;;;;5097379;28;19926;-82
2021/05/20 12:51:29;;;;;;;;;;;20.80;98.30;;;;;;5097255;28;19911;-82
2021/05/20 12:53:56;;;;;;;;;;;20.10;96.50;;;;;;5115685;28;19904;-82
2021/05/20 12:56:31;;;;;;;;;;;19.50;99.20;;;;;;5097032;28;19904;-82
2021/05/20 12:58:57;;;;;;;;;;;20.10;99.90;;;;;;5115124;28;19904;-82
2021/05/20 13:01:25;;;;;;;;;;;20.40;98.00;;;;;;5096589;28;20274;-80
2021/05/20 13:03:56;;;;;;;;;;;21.00;95.20;;;;;;5096904;28;19904;-80
2021/05/20 13:06:25;;;;;;;;;;;21.50;92.20;;;;;;5096976;28;19908;-83
2021/05/20 13:08:51;;;;;;;;;;;21.90;94.50;;;;;;5096485;28;20275;-82
2021/05/20 13:11:31;;;;;;;;;;;21.80;95.40;;;;;;5096411;28;19904;-81
2021/05/20 13:14:17;;;;;;;;;;;21.00;94.40;;;;;;5114828;28;19982;-82
2021/05/20 13:16:51;;;;;;;;;;;20.40;94.30;;;;;;5098636;28;19914;-81
2021/05/20 13:22:31;;;;;;;;;;;19.30;97.60;;;;;;5118344;28;20057;-81
2021/05/20 13:24:59;;;;;;;;;;;19.20;98.00;;;;;;5117387;28;19907;-80
2021/05/20 13:27:34;;;;;;;;;;;19.30;96.30;;;;;;5097195;28;19911;-81
2021/05/20 13:30:04;;;;;;;;;;;19.60;95.80;;;;;;5098413;28;19904;-81
2021/05/20 13:35:11;;;;;;;;;;;20.10;94.30;;;;;;5119421;28;19939;-81
2021/05/20 13:37:36;;;;;;;;;;;20.30;94.00;;;;;;5098760;28;19984;-81
2021/05/20 13:40:05;;;;;;;;;;;20.20;98.40;;;;;;5099857;28;19904;-81
2021/05/20 13:42:31;;;;;;;;;;;20.30;95.40;;;;;;5098160;28;20006;-82
2021/05/20 13:44:57;;;;;;;;;;;20.60;94.40;;;;;;5099814;28;20014;-80
2021/05/20 13:47:23;;;;;;;;;;;21.00;94.30;;;;;;5096853;28;19904;-81
2021/05/20 13:49:49;;;;;;;;;;;20.50;94.80;;;;;;5096222;28;20351;-81
2021/05/20 13:52:17;;;;;;;;;;;19.80;97.10;;;;;;5096127;28;19919;-81
2021/05/20 13:54:46;;;;;;;;;;;19.90;96.40;;;;;;5094829;28;19904;-80
2021/05/20 13:57:12;;;;;;;;;;;19.80;97.50;;;;;;5095901;28;20386;-81
2021/05/20 13:59:41;;;;;;;;;;;19.80;96.20;;;;;;5095041;28;19911;-81
2021/05/20 14:02:10;;;;;;;;;;;19.30;96.40;;;;;;5095548;28;20282;-81
2021/05/20 14:04:37;;;;;;;;;;;18.80;98.70;;;;;;5093980;28;20217;-81
2021/05/20 14:07:03;;;;;;;;;;;18.80;99.50;;;;;;5094161;28;19991;-81
2021/05/20 14:09:28;;;;;;;;;;;19.00;99.90;;;;;;5093429;28;20358;-81
2021/05/20 14:11:54;;;;;;;;;;;18.90;99.90;;;;;;5094222;28;19904;-80
2021/05/20 14:14:19;;;;;;;;;;;19.10;99.20;;;;;;5094214;28;19904;-81
2021/05/20 14:16:45;;;;;;;;;;;19.40;99.90;;;;;;5094902;28;19904;-81
2021/05/20 14:19:11;;;;;;;;;;;19.30;97.20;;;;;;5092912;28;20367;-81